createdAt,value
2023-03-24T00:00:48.902Z,100007.03
2023-03-24T00:03:17.418Z,100008.59
2023-03-24T00:05:44.933Z,100007.41
2023-03-24T00:08:11.456Z,100007.38
2023-03-24T00:10:37.965Z,99995.31
2023-03-24T00:13:04.601Z,100003.50
2023-03-24T00:15:31.452Z,100003.50
2023-03-24T00:17:58.407Z,100012.16
2023-03-24T00:20:26.389Z,100001.28
2023-03-24T00:22:58.603Z,99990.72
2023-03-24T00:25:28.542Z,99989.97
2023-03-24T00:27:56.433Z,99989.53
2023-03-24T00:30:25.043Z,99999.72
2023-03-24T00:32:52.082Z,99983.28
2023-03-24T00:35:18.689Z,99974.00
2023-03-24T00:37:45.808Z,99983.72
2023-03-24T00:40:16.327Z,99981.53
2023-03-24T00:42:47.729Z,99980.34
2023-03-24T00:45:18.236Z,99968.16
2023-03-24T00:47:45.018Z,99965.13
2023-03-24T00:50:17.377Z,99968.88
2023-03-24T00:52:48.287Z,99958.44
2023-03-24T00:55:16.350Z,99957.94
2023-03-24T00:57:50.151Z,99952.09
2023-03-24T01:00:24.185Z,99951.25
2023-03-24T01:02:56.281Z,99952.34
2023-03-24T01:05:25.617Z,99952.78
2023-03-24T01:07:52.247Z,99953.56
2023-03-24T01:10:26.043Z,99943.44
2023-03-24T01:12:55.425Z,99931.81
2023-03-24T01:15:24.622Z,99928.22
2023-03-24T01:17:53.107Z,99928.56
2023-03-24T01:20:22.943Z,99921.94
2023-03-24T01:22:50.732Z,99917.94
2023-03-24T01:25:22.845Z,99916.53
2023-03-24T01:27:50.683Z,99918.38
2023-03-24T01:30:19.426Z,99907.72
2023-03-24T01:32:46.016Z,99912.06
2023-03-24T01:35:13.036Z,99903.09
2023-03-24T01:37:41.197Z,99892.88
2023-03-24T01:40:10.059Z,99877.25
2023-03-24T01:42:38.304Z,99867.56
2023-03-24T01:45:43.682Z,99879.88
2023-03-24T01:48:18.514Z,99874.88
2023-03-24T01:50:48.952Z,99876.09
2023-03-24T01:53:15.607Z,99871.44
2023-03-24T01:55:43.252Z,99874.16
2023-03-24T01:58:10.283Z,99867.56
2023-03-24T02:00:48.279Z,99859.38
2023-03-24T02:03:47.837Z,99853.81
2023-03-24T02:06:16.060Z,99853.81
2023-03-24T02:09:04.306Z,99844.38
2023-03-24T02:11:56.215Z,99837.88
2023-03-24T02:14:23.040Z,99836.63
2023-03-24T02:17:36.308Z,99825.69
2023-03-24T02:20:15.038Z,99822.47
2023-03-24T02:23:01.609Z,99810.31
2023-03-24T02:25:47.914Z,99813.22
2023-03-24T02:28:39.800Z,99811.59
2023-03-24T02:31:16.237Z,99803.75
2023-03-24T02:34:11.270Z,99807.47
2023-03-24T02:37:02.902Z,99808.31
2023-03-24T02:39:47.444Z,99811.50
2023-03-24T02:42:30.059Z,99811.47
2023-03-24T02:45:35.389Z,99811.94
2023-03-24T02:48:11.811Z,99813.22
2023-03-24T02:50:52.358Z,99808.19
2023-03-24T02:54:07.723Z,99802.13
2023-03-24T02:57:01.960Z,99795.06
2023-03-24T03:00:00.907Z,99791.56
2023-03-24T03:02:55.731Z,99787.25
2023-03-24T03:05:28.422Z,99780.81
2023-03-24T03:07:58.009Z,99776.53
2023-03-24T03:10:29.874Z,99775.56
2023-03-24T03:12:59.329Z,99762.97
2023-03-24T03:15:33.848Z,99768.44
2023-03-24T03:18:34.090Z,99762.81
2023-03-24T03:21:05.151Z,99762.44
2023-03-24T03:23:49.120Z,99754.41
2023-03-24T03:26:17.402Z,99752.84
2023-03-24T03:28:49.905Z,99746.41
2023-03-24T03:31:21.713Z,99751.38
2023-03-24T03:33:58.824Z,99744.00
2023-03-24T03:36:42.316Z,99737.38
2023-03-24T03:39:28.580Z,99738.22
2023-03-24T03:41:57.572Z,99736.34
2023-03-24T03:44:25.300Z,99726.94
2023-03-24T03:46:52.603Z,99720.91
2023-03-24T03:49:27.732Z,99724.31
2023-03-24T03:51:55.837Z,99722.59
2023-03-24T03:54:23.455Z,99719.63
2023-03-24T03:56:50.421Z,99716.91
2023-03-24T03:59:35.503Z,99716.34
2023-03-24T04:02:42.277Z,99709.84
2023-03-24T04:05:19.793Z,99704.56
2023-03-24T04:08:06.312Z,99693.53
2023-03-24T04:11:06.478Z,99690.78
2023-03-24T04:14:06.613Z,99695.25
2023-03-24T04:16:59.162Z,99681.19
2023-03-24T04:19:37.190Z,99683.03
2023-03-24T04:22:17.511Z,99681.97
2023-03-24T04:24:56.490Z,99679.69
2023-03-24T04:27:38.844Z,99671.25
2023-03-24T04:30:23.603Z,99661.81
2023-03-24T04:32:59.328Z,99656.88
2023-03-24T04:35:33.216Z,99660.28
2023-03-24T04:38:23.205Z,99653.00
2023-03-24T04:40:57.600Z,99653.28
2023-03-24T04:43:27.876Z,99655.88
2023-03-24T04:45:57.698Z,99655.16
2023-03-24T04:48:31.552Z,99655.34
2023-03-24T04:51:11.103Z,99643.16
2023-03-24T04:54:03.802Z,99647.25
2023-03-24T04:56:46.032Z,99642.34
2023-03-24T04:59:30.824Z,99642.94
2023-03-24T05:01:58.073Z,99637.63
2023-03-24T05:04:57.020Z,99639.91
2023-03-24T05:07:32.917Z,99639.06
2023-03-24T05:10:02.416Z,99634.56
2023-03-24T05:12:32.130Z,99631.72
2023-03-24T05:15:17.214Z,99633.97
2023-03-24T05:17:46.202Z,99630.06
2023-03-24T05:20:13.014Z,99636.38
2023-03-24T05:22:42.674Z,99632.81
2023-03-24T05:25:09.542Z,99624.22
2023-03-24T05:27:36.207Z,99620.16
2023-03-24T05:30:15.488Z,99622.84
2023-03-24T05:32:43.001Z,99623.53
2023-03-24T05:35:10.367Z,99632.22
2023-03-24T05:37:36.916Z,99630.53
2023-03-24T05:40:03.982Z,99628.06
2023-03-24T05:42:40.463Z,99626.38
2023-03-24T05:45:09.609Z,99620.50
2023-03-24T05:47:36.820Z,99628.25
2023-03-24T05:50:04.392Z,99610.75
2023-03-24T05:52:31.936Z,99616.88
2023-03-24T05:55:12.164Z,99613.13
2023-03-24T05:57:39.537Z,99605.94
2023-03-24T06:00:24.879Z,99613.22
2023-03-24T06:02:58.321Z,99599.75
2023-03-24T06:05:29.786Z,99596.31
2023-03-24T06:07:58.758Z,99600.53
2023-03-24T06:10:28.099Z,99595.75
2023-03-24T06:12:55.802Z,99591.25
2023-03-24T06:15:28.122Z,99588.09
2023-03-24T06:18:01.128Z,99593.94
2023-03-24T06:20:34.515Z,99582.22
2023-03-24T06:23:10.496Z,99571.56
2023-03-24T06:25:52.530Z,99572.56
2023-03-24T06:28:26.054Z,99565.00
2023-03-24T06:30:53.450Z,99566.59
2023-03-24T06:33:25.931Z,99572.50
2023-03-24T06:35:54.018Z,99564.91
2023-03-24T06:38:20.645Z,99573.88
2023-03-24T06:40:47.250Z,99568.78
2023-03-24T06:43:14.502Z,99571.84
2023-03-24T06:48:17.643Z,99566.09
2023-03-24T06:50:44.487Z,99562.84
2023-03-24T06:53:11.277Z,99562.91
2023-03-24T06:55:38.565Z,99557.88
2023-03-24T06:58:05.678Z,99568.38
2023-03-24T07:00:32.182Z,99551.88
2023-03-24T07:03:18.855Z,99549.91
2023-03-24T07:06:02.552Z,99543.94
2023-03-24T07:08:38.134Z,99537.34
2023-03-24T07:11:08.914Z,99544.34
2023-03-24T07:13:38.283Z,99549.34
2023-03-24T07:16:05.421Z,99528.09
2023-03-24T07:18:33.621Z,99531.19
2023-03-24T07:21:04.337Z,99531.38
2023-03-24T07:23:32.579Z,99524.38
2023-03-24T07:26:20.670Z,99525.06
2023-03-24T07:28:47.590Z,99523.88
2023-03-24T07:31:37.778Z,99516.38
2023-03-24T07:34:07.602Z,99517.84
2023-03-24T07:36:36.404Z,99525.81
2023-03-24T07:39:05.254Z,99528.75
2023-03-24T07:41:34.589Z,99535.56
2023-03-24T07:44:05.992Z,99522.31
2023-03-24T07:46:36.635Z,99523.94
2023-03-24T07:49:18.254Z,99540.00
2023-03-24T07:51:50.465Z,99528.94
2023-03-24T07:54:23.496Z,99525.22
2023-03-24T07:56:51.632Z,99517.97
2023-03-24T07:59:18.695Z,99518.84
2023-03-24T08:01:55.395Z,99517.09
2023-03-24T08:04:42.924Z,99509.69
2023-03-24T08:07:40.291Z,99524.97
2023-03-24T08:10:10.943Z,99520.41
2023-03-24T08:12:37.469Z,99519.59
2023-03-24T08:15:05.087Z,99510.22
2023-03-24T08:17:32.359Z,99519.59
2023-03-24T08:20:01.345Z,99530.59
2023-03-24T08:22:29.226Z,99521.34
2023-03-24T08:24:55.730Z,99516.19
2023-03-24T08:27:23.533Z,99503.34
2023-03-24T08:29:50.049Z,99511.34
2023-03-24T08:32:16.571Z,99509.25
2023-03-24T08:34:43.045Z,99511.19
2023-03-24T08:37:09.659Z,99500.34
2023-03-24T08:39:36.200Z,99515.53
2023-03-24T08:42:02.902Z,99514.75
2023-03-24T08:44:31.102Z,99513.91
2023-03-24T08:47:01.023Z,99504.25
2023-03-24T08:49:27.634Z,99514.53
2023-03-24T08:51:54.177Z,99511.78
2023-03-24T08:54:23.507Z,99516.00
2023-03-24T08:56:51.135Z,99518.41
2023-03-24T08:59:18.114Z,99522.88
2023-03-24T09:01:45.081Z,99525.63
2023-03-24T09:04:11.896Z,99524.53
2023-03-24T09:06:38.513Z,99520.63
2023-03-24T09:09:05.183Z,99532.91
2023-03-24T09:11:31.810Z,99527.13
2023-03-24T09:13:58.380Z,99536.78
2023-03-24T09:16:24.978Z,99534.22
2023-03-24T09:18:51.645Z,99552.50
2023-03-24T09:21:18.190Z,99540.53
2023-03-24T09:23:44.937Z,99543.78
2023-03-24T09:26:11.705Z,99536.88
2023-03-24T09:28:38.253Z,99559.91
2023-03-24T09:31:06.168Z,99555.34
2023-03-24T09:33:34.960Z,99560.63
2023-03-24T09:36:02.784Z,99552.03
2023-03-24T09:38:30.492Z,99549.63
2023-03-24T09:41:01.512Z,99548.56
2023-03-24T09:43:41.864Z,99551.16
2023-03-24T09:46:14.598Z,99553.97
2023-03-24T09:48:49.552Z,99541.47
2023-03-24T09:51:23.760Z,99573.97
2023-03-24T09:54:05.167Z,99551.66
2023-03-24T09:56:32.781Z,99551.34
2023-03-24T09:59:07.380Z,99579.66
2023-03-24T10:01:36.125Z,99565.94
2023-03-24T10:04:03.591Z,99558.28
2023-03-24T10:06:31.994Z,99566.19
2023-03-24T10:09:24.545Z,99572.41
2023-03-24T10:11:50.956Z,99559.81
2023-03-24T10:14:54.776Z,99566.16
2023-03-24T10:17:40.157Z,99566.91
2023-03-24T10:20:28.139Z,99565.50
2023-03-24T10:23:07.910Z,99565.09
2023-03-24T10:25:47.158Z,99565.63
2023-03-24T10:28:24.071Z,99550.72
2023-03-24T10:30:51.437Z,99546.03
2023-03-24T10:33:18.849Z,99566.47
2023-03-24T10:36:10.991Z,99554.16
2023-03-24T10:38:37.737Z,99550.47
2023-03-24T10:41:04.478Z,99562.56
2023-03-24T10:43:32.184Z,99568.13
2023-03-24T10:45:59.689Z,99554.66
2023-03-24T10:48:42.811Z,99548.56
2023-03-24T10:51:27.050Z,99561.53
2023-03-24T10:54:22.264Z,99570.81
2023-03-24T10:56:51.494Z,99572.53
2023-03-24T10:59:21.760Z,99565.44
2023-03-24T11:01:48.354Z,99563.38
2023-03-24T11:04:17.442Z,99556.06
2023-03-24T11:07:15.133Z,99581.41
2023-03-24T11:09:43.562Z,99585.84
2023-03-24T11:12:21.656Z,99578.63
2023-03-24T11:14:48.165Z,99579.13
2023-03-24T11:17:16.019Z,99586.16
2023-03-24T11:19:54.355Z,99573.03
2023-03-24T11:22:21.456Z,99585.38
2023-03-24T11:24:52.511Z,99580.38
2023-03-24T11:27:19.506Z,99580.84
2023-03-24T11:29:50.167Z,99581.91
2023-03-24T11:32:25.647Z,99574.41
2023-03-24T11:35:18.546Z,99579.38
2023-03-24T11:37:45.830Z,99573.88
2023-03-24T11:40:12.300Z,99569.84
2023-03-24T11:42:45.941Z,99567.53
2023-03-24T11:45:38.289Z,99589.47
2023-03-24T11:48:12.433Z,99584.75
2023-03-24T11:50:39.491Z,99590.88
2023-03-24T11:53:17.353Z,99589.28
2023-03-24T11:56:05.668Z,99597.09
2023-03-24T11:58:50.330Z,99598.88
2023-03-24T12:01:28.661Z,99585.75
2023-03-24T12:04:15.799Z,99590.06
2023-03-24T12:07:07.836Z,99584.09
2023-03-24T12:09:51.688Z,99561.13
2023-03-24T12:12:27.671Z,99561.72
2023-03-24T12:15:26.739Z,99569.38
2023-03-24T12:18:18.239Z,99589.66
2023-03-24T12:21:12.605Z,99572.31
2023-03-24T12:23:55.043Z,99580.44
2023-03-24T12:26:28.225Z,99590.22
2023-03-24T12:29:17.515Z,99601.19
2023-03-24T12:32:11.329Z,99609.69
2023-03-24T12:35:15.517Z,99609.22
2023-03-24T12:37:52.198Z,99601.22
2023-03-24T12:40:46.942Z,99600.63
2023-03-24T12:43:20.018Z,99592.94
2023-03-24T12:45:54.541Z,99601.97
2023-03-24T12:48:53.378Z,99580.25
2023-03-24T12:51:31.391Z,99581.28
2023-03-24T12:54:30.008Z,99595.59
2023-03-24T12:57:02.278Z,99606.75
2023-03-24T12:59:51.470Z,99607.19
2023-03-24T13:02:31.577Z,99608.75
2023-03-24T13:05:05.473Z,99604.41
2023-03-24T13:07:39.054Z,99603.69
2023-03-24T13:10:13.607Z,99598.47
2023-03-24T13:12:52.485Z,99607.53
2023-03-24T13:15:31.197Z,99615.59
2023-03-24T13:18:10.062Z,99614.75
2023-03-24T13:20:40.670Z,99614.06
2023-03-24T13:23:22.362Z,99597.53
2023-03-24T13:25:54.918Z,99579.78
2023-03-24T13:28:27.970Z,99581.03
2023-03-24T13:30:54.854Z,99601.00
2023-03-24T13:33:28.120Z,99609.72
2023-03-24T13:36:08.364Z,99639.41
2023-03-24T13:38:46.116Z,99656.59
2023-03-24T13:41:24.641Z,99673.06
2023-03-24T13:43:58.476Z,99696.84
2023-03-24T13:46:25.292Z,99697.00
2023-03-24T13:48:55.389Z,99689.41
2023-03-24T13:51:31.756Z,99679.69
2023-03-24T13:54:03.364Z,99680.47
2023-03-24T13:56:40.205Z,99690.28
2023-03-24T13:59:28.364Z,99693.38
2023-03-24T14:02:29.052Z,99678.41
2023-03-24T14:05:03.094Z,99670.84
2023-03-24T14:07:32.482Z,99680.72
2023-03-24T14:10:16.248Z,99668.19
2023-03-24T14:13:02.039Z,99657.19
2023-03-24T14:15:33.393Z,99679.69
2023-03-24T14:18:24.455Z,99672.44
2023-03-24T14:20:57.471Z,99668.06
2023-03-24T14:23:46.734Z,99665.78
2023-03-24T14:26:16.165Z,99638.38
2023-03-24T14:28:48.711Z,99621.47
2023-03-24T14:31:18.493Z,99598.50
2023-03-24T14:33:54.547Z,99592.97
2023-03-24T14:36:27.151Z,99587.81
2023-03-24T14:38:53.715Z,99604.66
2023-03-24T14:41:31.170Z,99623.97
2023-03-24T14:43:59.534Z,99621.34
2023-03-24T14:46:47.542Z,99614.22
2023-03-24T14:49:23.867Z,99627.63
2023-03-24T14:52:02.210Z,99625.13
2023-03-24T14:54:47.256Z,99640.84
2023-03-24T14:57:26.566Z,99632.94
2023-03-24T15:00:15.010Z,99632.81
2023-03-24T15:02:58.487Z,99637.38
2023-03-24T15:05:31.978Z,99643.03
2023-03-24T15:08:23.858Z,99634.13
2023-03-24T15:11:06.165Z,99637.34
2023-03-24T15:13:42.526Z,99634.66
2023-03-24T15:16:12.047Z,99638.25
2023-03-24T15:19:02.068Z,99629.03
2023-03-24T15:21:33.593Z,99625.72
2023-03-24T15:24:01.581Z,99635.44
2023-03-24T15:26:30.081Z,99641.56
2023-03-24T15:29:07.042Z,99646.84
2023-03-24T15:31:33.661Z,99646.19
2023-03-24T15:34:28.300Z,99654.75
2023-03-24T15:36:57.408Z,99657.91
2023-03-24T15:39:27.841Z,99658.06
2023-03-24T15:41:54.485Z,99658.97
2023-03-24T15:44:25.601Z,99653.94
2023-03-24T15:46:55.038Z,99656.25
2023-03-24T15:49:31.766Z,99651.88
2023-03-24T15:52:03.939Z,99655.59
2023-03-24T15:54:36.629Z,99665.19
2023-03-24T15:57:23.447Z,99657.38
2023-03-24T16:00:11.918Z,99672.03
2023-03-24T16:02:48.284Z,99675.88
2023-03-24T16:05:22.116Z,99666.41
2023-03-24T16:08:05.803Z,99655.53
2023-03-24T16:10:42.839Z,99655.81
2023-03-24T16:13:19.364Z,99650.69
2023-03-24T16:16:22.099Z,99656.50
2023-03-24T16:19:45.780Z,99651.56
2023-03-24T16:22:24.477Z,99661.78
2023-03-24T16:25:06.580Z,99667.59
2023-03-24T16:27:59.409Z,99664.06
2023-03-24T16:30:37.448Z,99660.81
2023-03-24T16:33:34.095Z,99675.06
2023-03-24T16:36:06.759Z,99675.84
2023-03-24T16:39:34.892Z,99672.88
2023-03-24T16:42:14.238Z,99678.03
2023-03-24T16:44:52.450Z,99686.84
2023-03-24T16:47:20.782Z,99679.03
2023-03-24T16:49:49.077Z,99688.06
2023-03-24T16:52:17.118Z,99690.34
2023-03-24T16:54:57.958Z,99688.16
2023-03-24T16:57:24.954Z,99698.13
2023-03-24T17:05:54.085Z,99706.59
2023-03-24T17:08:26.841Z,99703.16
2023-03-24T17:11:00.041Z,99701.50
2023-03-24T17:13:31.432Z,99697.44
2023-03-24T17:16:13.311Z,99698.63
2023-03-24T17:18:47.265Z,99706.19
2023-03-24T17:21:16.185Z,99703.63
2023-03-24T17:23:43.757Z,99710.50
2023-03-24T17:26:10.292Z,99718.06
2023-03-24T17:28:36.827Z,99712.88
2023-03-24T17:31:03.418Z,99720.41
2023-03-24T17:33:30.068Z,99717.34
2023-03-24T17:35:56.610Z,99715.88
2023-03-24T17:38:23.306Z,99728.56
2023-03-24T17:40:58.925Z,99721.03
2023-03-24T17:43:27.282Z,99738.53
2023-03-24T17:46:01.400Z,99736.91
2023-03-24T17:48:28.462Z,99742.31
2023-03-24T17:50:56.937Z,99751.03
2023-03-24T17:53:27.050Z,99753.03
2023-03-24T17:55:58.586Z,99752.44
2023-03-24T17:58:30.183Z,99756.19
2023-03-24T18:00:58.299Z,99759.81
2023-03-24T18:03:26.065Z,99759.09
2023-03-24T18:05:52.806Z,99748.56
2023-03-24T18:08:19.657Z,99750.25
2023-03-24T18:10:46.258Z,99752.38
2023-03-24T18:13:14.585Z,99748.09
2023-03-24T18:15:43.667Z,99744.81
2023-03-24T18:18:12.160Z,99751.59
2023-03-24T18:20:39.432Z,99752.16
2023-03-24T18:23:06.485Z,99751.13
2023-03-24T18:25:33.313Z,99755.91
2023-03-24T18:27:59.938Z,99755.75
2023-03-24T18:30:26.581Z,99748.81
2023-03-24T18:32:53.202Z,99748.13
2023-03-24T18:35:20.422Z,99756.47
2023-03-24T18:37:47.099Z,99760.47
2023-03-24T18:40:14.858Z,99749.94
2023-03-24T18:42:41.425Z,99746.91
2023-03-24T18:45:08.555Z,99746.91
2023-03-24T18:47:35.179Z,99754.78
2023-03-24T18:50:01.977Z,99751.00
2023-03-24T18:52:28.947Z,99754.94
2023-03-24T18:54:59.445Z,99757.41
2023-03-24T18:57:26.184Z,99763.69
2023-03-24T18:59:53.254Z,99770.09
2023-03-24T19:02:19.859Z,99767.78
2023-03-24T19:04:48.184Z,99766.28
2023-03-24T19:07:14.913Z,99765.22
2023-03-24T19:09:42.338Z,99763.25
2023-03-24T19:12:09.520Z,99773.78
2023-03-24T19:14:36.579Z,99775.81
2023-03-24T19:17:03.718Z,99787.53
2023-03-24T19:19:31.701Z,99800.28
2023-03-24T19:21:58.878Z,99817.31
2023-03-24T19:24:26.368Z,99813.44
2023-03-24T19:26:53.990Z,99800.28
2023-03-24T19:29:21.503Z,99791.28
2023-03-24T19:31:49.568Z,99785.94
2023-03-24T19:34:16.192Z,99792.50
2023-03-24T19:36:46.464Z,99787.09
2023-03-24T19:39:15.071Z,99797.31
2023-03-24T19:41:41.719Z,99792.69
2023-03-24T19:44:08.304Z,99795.81
2023-03-24T19:46:34.910Z,99804.47
2023-03-24T19:49:01.527Z,99811.47
2023-03-24T19:51:28.090Z,99814.19
2023-03-24T19:53:55.339Z,99835.22
2023-03-24T19:56:23.378Z,99826.34
2023-03-24T19:58:50.422Z,99817.81
2023-03-24T20:01:17.589Z,99821.72
2023-03-24T20:03:44.298Z,99832.25
2023-03-24T20:06:11.247Z,99838.94
2023-03-24T20:08:38.355Z,99844.47
2023-03-24T20:11:10.685Z,99832.09
2023-03-24T20:13:38.748Z,99825.97
2023-03-24T20:16:06.149Z,99833.81
2023-03-24T20:18:34.352Z,99829.19
2023-03-24T20:21:01.667Z,99820.16
2023-03-24T20:23:28.488Z,99816.31
2023-03-24T20:26:04.192Z,99819.69
2023-03-24T20:28:30.801Z,99826.06
2023-03-24T20:31:01.972Z,99830.75
2023-03-24T20:33:31.749Z,99819.72
2023-03-24T20:35:58.885Z,99832.69
2023-03-24T20:38:25.958Z,99829.94
2023-03-24T20:41:00.381Z,99837.63
2023-03-24T20:43:27.253Z,99835.00
2023-03-24T20:45:58.157Z,99835.34
2023-03-24T20:48:25.312Z,99840.81
2023-03-24T20:51:07.726Z,99839.41
2023-03-24T20:53:35.685Z,99840.13
2023-03-24T20:56:07.255Z,99840.91
2023-03-24T20:58:35.065Z,99838.41
2023-03-24T21:01:08.091Z,99836.34
2023-03-24T21:03:35.096Z,99827.06
2023-03-24T21:06:01.953Z,99828.63
2023-03-24T21:08:28.924Z,99832.06
2023-03-24T21:10:56.722Z,99825.97
2023-03-24T21:13:23.687Z,99836.88
2023-03-24T21:15:50.396Z,99838.81
2023-03-24T21:18:17.196Z,99845.88
2023-03-24T21:20:57.746Z,99843.44
2023-03-24T21:23:24.811Z,99842.31
2023-03-24T21:25:52.071Z,99845.91
2023-03-24T21:28:18.742Z,99839.66
2023-03-24T21:30:46.170Z,99843.59
2023-03-24T21:33:14.615Z,99839.31
2023-03-24T21:35:41.586Z,99839.66
2023-03-24T21:38:09.583Z,99843.22
2023-03-24T21:40:36.256Z,99842.94
2023-03-24T21:43:05.631Z,99833.19
2023-03-24T21:45:33.216Z,99821.22
2023-03-24T21:48:00.073Z,99825.91
2023-03-24T21:50:26.718Z,99818.50
2023-03-24T21:52:54.774Z,99816.56
2023-03-24T21:55:22.377Z,99825.53
2023-03-24T21:57:50.490Z,99824.41
2023-03-24T22:00:19.633Z,99829.84
2023-03-24T22:02:49.683Z,99835.34
2023-03-24T22:05:18.973Z,99827.94
2023-03-24T22:07:46.927Z,99832.28
2023-03-24T22:10:16.259Z,99827.63
2023-03-24T22:12:43.948Z,99830.78
2023-03-24T22:15:11.836Z,99826.47
2023-03-24T22:17:38.790Z,99828.53
2023-03-24T22:20:06.384Z,99820.75
2023-03-24T22:22:33.689Z,99818.84
2023-03-24T22:25:00.224Z,99824.31
2023-03-24T22:27:26.730Z,99820.81
2023-03-24T22:29:53.288Z,99820.81
2023-03-24T22:32:19.873Z,99814.66
2023-03-24T22:34:46.460Z,99810.81
2023-03-24T22:37:12.999Z,99825.59
2023-03-24T22:39:39.500Z,99820.94
2023-03-24T22:42:06.004Z,99822.53
2023-03-24T22:44:33.573Z,99813.59
2023-03-24T22:47:02.243Z,99808.09
2023-03-24T22:49:29.652Z,99806.56
2023-03-24T22:51:56.246Z,99809.31
2023-03-24T22:54:23.466Z,99812.88
2023-03-24T22:56:50.308Z,99807.13
2023-03-24T22:59:16.920Z,99799.44
2023-03-24T23:01:43.478Z,99804.88
2023-03-24T23:04:10.114Z,99815.44
2023-03-24T23:06:36.947Z,99813.91
2023-03-24T23:09:04.709Z,99803.41
2023-03-24T23:11:31.964Z,99803.03
2023-03-24T23:14:04.542Z,99806.25
2023-03-24T23:16:33.185Z,99806.63
2023-03-24T23:19:00.485Z,99805.47
2023-03-24T23:21:27.616Z,99805.88
2023-03-24T23:23:54.250Z,99808.97
2023-03-24T23:26:25.214Z,99812.47
2023-03-24T23:28:53.545Z,99810.50
2023-03-24T23:31:24.774Z,99810.16
2023-03-24T23:33:53.954Z,99807.13
2023-03-24T23:36:20.522Z,99802.91
2023-03-24T23:38:50.539Z,99803.31
2023-03-24T23:41:17.868Z,99806.78
2023-03-24T23:43:48.201Z,99809.09
2023-03-24T23:46:14.824Z,99809.06
2023-03-24T23:48:41.472Z,99799.75
2023-03-24T23:51:08.008Z,99796.63
2023-03-24T23:53:35.813Z,99801.34
2023-03-24T23:56:07.814Z,99795.25
2023-03-24T23:58:36.642Z,99794.44
